createdAt,value
2023-04-15T00:01:12.168Z,100253.03
2023-04-15T00:06:11.830Z,100250.50
2023-04-15T00:11:14.072Z,100283.44
2023-04-15T00:16:13.486Z,100265.34
2023-04-15T00:21:15.228Z,100245.81
2023-04-15T00:26:14.432Z,100265.72
2023-04-15T00:31:14.556Z,100275.50
2023-04-15T00:36:15.745Z,100291.41
2023-04-15T00:41:23.188Z,100296.59
2023-04-15T00:46:24.447Z,100308.63
2023-04-15T00:51:25.049Z,100294.53
2023-04-15T00:56:25.859Z,100299.56
2023-04-15T01:01:28.739Z,100316.53
2023-04-15T01:06:32.521Z,100304.41
2023-04-15T01:11:33.734Z,100300.13
2023-04-15T01:16:33.424Z,100307.31
2023-04-15T01:21:33.562Z,100312.47
2023-04-15T01:26:32.627Z,100336.00
2023-04-15T01:31:42.084Z,100337.03
2023-04-15T01:36:42.751Z,100352.63
2023-04-15T01:41:42.965Z,100325.00
2023-04-15T01:46:43.944Z,100302.13
2023-04-15T01:51:46.951Z,100312.59
2023-04-15T01:56:45.226Z,100350.91
2023-04-15T02:01:47.295Z,100341.88
2023-04-15T02:06:49.533Z,100319.47
2023-04-15T02:11:51.074Z,100294.44
2023-04-15T02:16:51.770Z,100296.47
2023-04-15T02:21:50.795Z,100310.78
2023-04-15T02:26:50.371Z,100314.66
2023-04-15T02:31:51.345Z,100335.91
2023-04-15T02:36:57.428Z,100353.44
2023-04-15T02:42:01.790Z,100324.69
2023-04-15T02:47:05.338Z,100294.75
2023-04-15T02:52:05.142Z,100296.56
2023-04-15T02:57:08.097Z,100323.72
2023-04-15T03:02:08.554Z,100324.13
2023-04-15T03:07:08.206Z,100349.75
2023-04-15T03:12:11.156Z,100320.50
2023-04-15T03:17:18.495Z,100297.09
2023-04-15T03:22:19.910Z,100333.97
2023-04-15T03:27:20.174Z,100343.88
2023-04-15T03:32:23.140Z,100372.81
2023-04-15T03:37:22.773Z,100394.06
2023-04-15T03:42:22.464Z,100363.72
2023-04-15T03:47:27.122Z,100374.59
2023-04-15T03:52:26.328Z,100390.28
2023-04-15T03:57:24.881Z,100387.44
2023-04-15T04:02:24.657Z,100378.94
2023-04-15T04:07:25.327Z,100365.03
2023-04-15T04:12:24.477Z,100369.81
2023-04-15T04:17:24.619Z,100370.81
2023-04-15T04:22:28.807Z,100367.47
2023-04-15T04:27:28.520Z,100384.00
2023-04-15T04:32:34.040Z,100376.53
2023-04-15T04:37:34.831Z,100408.59
2023-04-15T04:42:39.862Z,100423.81
2023-04-15T04:47:45.831Z,100423.50
2023-04-15T04:52:51.617Z,100424.44
2023-04-15T04:57:51.740Z,100426.91
2023-04-15T05:02:53.446Z,100423.97
2023-04-15T05:07:55.828Z,100444.84
2023-04-15T05:12:58.088Z,100432.00
2023-04-15T05:17:56.557Z,100427.19
2023-04-15T05:22:55.725Z,100453.09
2023-04-15T05:27:58.025Z,100473.13
2023-04-15T05:32:56.817Z,100463.19
2023-04-15T05:37:56.668Z,100443.25
2023-04-15T05:42:56.864Z,100453.03
2023-04-15T05:47:59.371Z,100488.25
2023-04-15T05:52:58.544Z,100481.66
2023-04-15T05:57:58.245Z,100469.25
2023-04-15T06:03:01.327Z,100488.75
2023-04-15T06:08:02.412Z,100474.50
2023-04-15T06:13:01.690Z,100462.50
2023-04-15T06:18:01.623Z,100483.34
2023-04-15T06:23:03.991Z,100493.06
2023-04-15T06:28:04.412Z,100474.44
2023-04-15T06:33:05.715Z,100487.00
2023-04-15T06:38:09.124Z,100498.91
2023-04-15T06:43:21.594Z,100514.66
2023-04-15T06:48:25.250Z,100504.13
2023-04-15T06:53:29.494Z,100505.47
2023-04-15T06:58:31.321Z,100496.56
2023-04-15T07:03:33.106Z,100498.38
2023-04-15T07:14:24.167Z,100520.41
2023-04-15T07:19:23.496Z,100521.94
2023-04-15T07:24:26.994Z,100550.47
2023-04-15T07:29:28.431Z,100560.13
2023-04-15T07:34:32.202Z,100559.00
2023-04-15T07:39:48.866Z,100561.91
2023-04-15T07:44:46.901Z,100561.41
2023-04-15T07:49:51.908Z,100584.19
2023-04-15T07:54:52.582Z,100579.59
2023-04-15T07:59:51.446Z,100565.41
2023-04-15T08:04:50.329Z,100583.41
2023-04-15T08:09:48.490Z,100615.19
2023-04-15T08:14:49.949Z,100620.06
2023-04-15T08:19:49.882Z,100617.03
2023-04-15T08:24:49.029Z,100622.16
2023-04-15T08:29:49.233Z,100625.38
2023-04-15T08:34:50.480Z,100614.13
2023-04-15T08:39:52.458Z,100606.84
2023-04-15T08:44:55.003Z,100597.00
2023-04-15T08:49:56.449Z,100621.53
2023-04-15T08:55:05.289Z,100617.06
2023-04-15T09:00:11.139Z,100622.94
2023-04-15T09:05:09.634Z,100604.53
2023-04-15T09:10:10.275Z,100611.81
2023-04-15T09:15:13.234Z,100631.03
2023-04-15T09:20:18.398Z,100626.34
2023-04-15T09:25:23.601Z,100621.25
2023-04-15T09:30:23.933Z,100602.81
2023-04-15T09:35:23.107Z,100609.00
2023-04-15T09:40:37.418Z,100619.28
2023-04-15T09:45:37.931Z,100613.16
2023-04-15T09:50:44.312Z,100573.56
2023-04-15T09:55:53.667Z,100596.25
2023-04-15T10:00:53.052Z,100574.41
2023-04-15T10:05:52.824Z,100582.06
2023-04-15T10:10:53.653Z,100598.13
2023-04-15T10:16:02.674Z,100580.22
2023-04-15T10:21:01.464Z,100582.41
2023-04-15T10:26:02.086Z,100597.22
2023-04-15T10:31:02.442Z,100607.41
2023-04-15T10:36:06.876Z,100600.34
2023-04-15T10:41:34.839Z,100560.66
2023-04-15T10:46:39.532Z,100599.22
2023-04-15T10:51:41.939Z,100571.22
2023-04-15T10:56:49.173Z,100591.38
2023-04-15T11:01:52.221Z,100593.03
2023-04-15T11:07:16.824Z,100582.91
2023-04-15T11:12:16.732Z,100603.13
2023-04-15T11:17:14.555Z,100568.59
2023-04-15T11:22:17.856Z,100577.50
2023-04-15T11:27:26.116Z,100570.97
2023-04-15T11:32:31.815Z,100582.56
2023-04-15T11:37:35.654Z,100576.31
2023-04-15T11:42:48.489Z,100586.84
2023-04-15T11:47:48.313Z,100570.06
2023-04-15T11:53:08.777Z,100580.00
2023-04-15T11:58:13.943Z,100550.84
2023-04-15T12:03:25.516Z,100553.97
2023-04-15T12:08:25.693Z,100533.66
2023-04-15T12:13:24.685Z,100563.03
2023-04-15T12:18:22.885Z,100558.66
2023-04-15T12:23:24.898Z,100535.25
2023-04-15T12:28:23.270Z,100542.06
2023-04-15T12:33:24.643Z,100541.97
2023-04-15T12:38:22.306Z,100534.31
2023-04-15T12:43:21.975Z,100552.88
2023-04-15T12:48:21.767Z,100529.53
2023-04-15T12:53:20.926Z,100540.06
2023-04-15T12:58:19.646Z,100542.91
2023-04-15T13:03:19.119Z,100561.06
2023-04-15T13:08:18.379Z,100529.66
2023-04-15T13:13:17.679Z,100550.56
2023-04-15T13:18:19.433Z,100567.41
2023-04-15T13:23:18.095Z,100550.31
2023-04-15T13:28:22.875Z,100537.50
2023-04-15T13:33:25.102Z,100567.66
2023-04-15T13:38:29.486Z,100580.41
2023-04-15T13:43:27.291Z,100561.59
2023-04-15T13:48:26.600Z,100572.09
2023-04-15T13:53:33.944Z,100582.16
2023-04-15T13:58:46.040Z,100586.16
2023-04-15T14:03:45.478Z,100570.91
2023-04-15T14:08:46.716Z,100572.78
2023-04-15T14:13:45.645Z,100571.81
2023-04-15T14:18:47.011Z,100575.09
2023-04-15T14:23:47.907Z,100571.25
2023-04-15T14:28:47.796Z,100579.75
2023-04-15T14:33:56.283Z,100586.97
2023-04-15T14:38:56.402Z,100594.38
2023-04-15T14:43:56.857Z,100564.22
2023-04-15T14:48:55.852Z,100574.25
2023-04-15T14:53:55.192Z,100596.16
2023-04-15T14:58:58.690Z,100587.19
2023-04-15T15:03:57.462Z,100609.84
2023-04-15T15:09:02.866Z,100600.88
2023-04-15T15:14:01.047Z,100602.13
2023-04-15T15:19:01.330Z,100590.59
2023-04-15T15:24:02.730Z,100596.63
2023-04-15T15:29:04.676Z,100580.31
2023-04-15T15:34:05.594Z,100611.16
2023-04-15T15:39:07.378Z,100599.22
2023-04-15T15:44:09.093Z,100594.91
2023-04-15T15:49:11.134Z,100564.78
2023-04-15T15:54:09.346Z,100585.13
2023-04-15T15:59:09.105Z,100577.91
2023-04-15T16:04:10.984Z,100568.25
2023-04-15T16:09:10.902Z,100592.03
2023-04-15T16:14:14.159Z,100566.22
2023-04-15T16:19:13.268Z,100552.38
2023-04-15T16:24:12.026Z,100574.38
2023-04-15T16:29:13.059Z,100552.03
2023-04-15T16:34:16.163Z,100556.72
2023-04-15T16:39:16.046Z,100559.44
2023-04-15T16:44:15.498Z,100558.25
2023-04-15T16:49:16.580Z,100569.91
2023-04-15T16:54:16.808Z,100568.03
2023-04-15T16:59:17.065Z,100551.66
2023-04-15T17:04:19.493Z,100577.88
2023-04-15T17:09:23.729Z,100577.06
2023-04-15T17:14:22.860Z,100597.50
2023-04-15T17:19:21.400Z,100611.75
2023-04-15T17:24:25.608Z,100604.97
2023-04-15T17:29:25.541Z,100607.34
2023-04-15T17:34:49.496Z,100605.00
2023-04-15T17:39:50.705Z,100623.84
2023-04-15T17:44:49.534Z,100594.66
2023-04-15T17:49:51.192Z,100613.38
2023-04-15T17:54:56.339Z,100633.75
2023-04-15T17:59:59.666Z,100629.56
2023-04-15T18:05:01.724Z,100640.31
2023-04-15T18:10:04.216Z,100636.81
2023-04-15T18:15:13.744Z,100626.78
2023-04-15T18:20:15.605Z,100638.75
2023-04-15T18:25:16.923Z,100654.34
2023-04-15T18:30:21.346Z,100653.09
2023-04-15T18:35:25.822Z,100674.63
2023-04-15T18:40:30.940Z,100658.69
2023-04-15T18:45:40.371Z,100687.06
2023-04-15T18:50:40.079Z,100689.13
2023-04-15T18:55:39.695Z,100662.41
2023-04-15T19:00:43.942Z,100680.84
2023-04-15T19:05:44.969Z,100682.44
2023-04-15T19:10:50.681Z,100660.78
2023-04-15T19:16:08.823Z,100655.13
2023-04-15T19:21:14.353Z,100671.34
2023-04-15T19:26:14.218Z,100644.63
2023-04-15T19:31:19.098Z,100666.88
2023-04-15T19:36:21.575Z,100652.50
2023-04-15T19:41:19.976Z,100663.84
2023-04-15T19:46:29.114Z,100657.34
2023-04-15T19:51:30.387Z,100671.13
2023-04-15T19:56:32.820Z,100655.94
2023-04-15T20:01:33.969Z,100692.59
2023-04-15T20:06:33.594Z,100671.94
2023-04-15T20:12:09.327Z,100663.00
2023-04-15T20:16:55.464Z,100678.41
2023-04-15T20:22:03.659Z,100683.84
2023-04-15T20:27:04.181Z,100670.66
2023-04-15T20:32:18.630Z,100681.19
2023-04-15T20:37:20.957Z,100656.22
2023-04-15T20:42:23.635Z,100680.69
2023-04-15T20:47:24.387Z,100698.31
2023-04-15T20:52:23.610Z,100682.78
2023-04-15T20:57:25.194Z,100687.84
2023-04-15T21:02:30.661Z,100697.25
2023-04-15T21:07:29.227Z,100689.97
2023-04-15T21:12:32.261Z,100692.03
2023-04-15T21:17:31.274Z,100681.66
2023-04-15T21:22:32.141Z,100664.00
2023-04-15T21:27:31.406Z,100658.09
2023-04-15T21:32:30.841Z,100669.56
2023-04-15T21:37:36.839Z,100660.63
2023-04-15T21:42:38.057Z,100666.88
2023-04-15T21:48:04.623Z,100655.84
2023-04-15T21:53:07.983Z,100681.16
2023-04-15T21:58:07.365Z,100690.13
2023-04-15T22:03:11.702Z,100655.84
2023-04-15T22:08:10.951Z,100696.56
2023-04-15T22:13:11.368Z,100669.38
2023-04-15T22:18:12.210Z,100668.13
2023-04-15T22:23:11.010Z,100666.78
2023-04-15T22:28:15.278Z,100655.53
2023-04-15T22:33:14.668Z,100676.97
2023-04-15T22:38:15.910Z,100651.81
2023-04-15T22:43:18.328Z,100656.00
2023-04-15T22:48:18.310Z,100638.63
2023-04-15T22:53:20.563Z,100656.66
2023-04-15T22:58:20.571Z,100642.59
2023-04-15T23:03:20.832Z,100646.47
2023-04-15T23:08:20.739Z,100645.25
2023-04-15T23:13:21.083Z,100629.47
2023-04-15T23:18:24.062Z,100649.53
2023-04-15T23:23:25.084Z,100640.06
2023-04-15T23:28:26.489Z,100644.78
2023-04-15T23:33:28.777Z,100635.34
2023-04-15T23:38:28.424Z,100636.91
2023-04-15T23:43:31.438Z,100602.00
2023-04-15T23:48:30.404Z,100620.69
2023-04-15T23:53:32.547Z,100615.81
2023-04-15T23:58:35.398Z,100614.53
